Time;durP1;ratioP1;P1;durP2;ratioP2;P2;SDS_P1;SDS_P2;PMS_P1;PMS_P2;Temp;Humidity;BMP_temperature;BMP_pressure;BME280_temperature;BME280_humidity;BME280_pressure;Samples;Min_cycle;Max_cycle;Signal;HPM_P1;HPM_P2
2022/05/31 06:42:21;;;;;;;;;2.25;2.25;;;;;19.19;50.96;100934.94;5060376;27;47310;-79
2022/05/31 06:44:46;;;;;;;;;4.50;3.00;;;;;19.30;50.58;100931.28;5058895;28;45724;-79
2022/05/31 06:47:12;;;;;;;;;2.67;2.00;;;;;19.55;50.27;100934.50;5058968;28;46492;-79
2022/05/31 06:49:38;;;;;;;;;5.00;3.25;;;;;19.79;50.26;100938.66;5059824;28;45447;-79
2022/05/31 06:57:38;;;;;;;;;4.00;4.00;;;;;20.74;48.15;100935.44;5058324;28;45557;-80
2022/05/31 07:00:06;;;;;;;;;4.00;2.67;;;;;21.05;48.08;100937.09;5062359;28;47007;-80
2022/05/31 07:02:32;;;;;;;;;4.00;4.00;;;;;21.31;47.03;100937.28;5061981;28;46553;-79
2022/05/31 07:04:57;;;;;;;;;2.33;2.33;;;;;21.55;47.19;100938.53;5060813;28;45622;-80
2022/05/31 07:07:23;;;;;;;;;3.67;3.67;;;;;21.80;46.62;100933.47;5065334;28;52106;-79
2022/05/31 07:09:48;;;;;;;;;5.00;5.00;;;;;22.01;45.76;100929.63;5062952;28;50844;-78
2022/05/31 07:12:14;;;;;;;;;3.00;3.00;;;;;22.20;45.59;100933.19;5059192;28;45993;-79
2022/05/31 07:14:39;;;;;;;;;4.00;4.00;;;;;22.39;45.54;100932.16;5059774;28;45391;-74
2022/05/31 07:17:05;;;;;;;;;3.00;3.00;;;;;22.55;45.35;100933.31;5060989;27;49960;-74
2022/05/31 07:19:30;;;;;;;;;5.00;3.33;;;;;22.70;44.33;100934.47;5059923;28;45728;-75
2022/05/31 07:22:00;;;;;;;;;2.00;2.00;;;;;22.86;44.05;100936.44;5060176;28;45899;-76
2022/05/31 07:24:26;;;;;;;;;3.33;3.33;;;;;22.99;43.86;100937.84;5060004;28;45515;-76
2022/05/31 07:26:52;;;;;;;;;4.00;4.00;;;;;23.11;44.04;100942.00;5053418;28;45518;-77
2022/05/31 07:29:18;;;;;;;;;4.00;2.33;;;;;23.23;43.39;100942.56;5064574;28;45752;-76
2022/05/31 07:31:44;;;;;;;;;4.33;4.00;;;;;23.34;43.38;100952.25;5063626;27;46072;-76
2022/05/31 07:34:11;;;;;;;;;3.00;3.00;;;;;23.42;42.74;100946.06;5065087;27;45685;-77
2022/05/31 07:36:38;;;;;;;;;3.00;3.00;;;;;23.52;42.95;100948.63;5058568;28;45850;-77
2022/05/31 07:39:04;;;;;;;;;5.33;4.00;;;;;23.62;42.49;100946.63;5059132;27;46494;-85
2022/05/31 07:41:32;;;;;;;;;3.00;3.00;;;;;23.69;42.43;100949.53;5065463;28;46174;-79
2022/05/31 07:43:58;;;;;;;;;4.00;4.00;;;;;23.81;41.96;100950.06;5058501;28;45599;-74
2022/05/31 07:46:23;;;;;;;;;8.00;5.00;;;;;23.92;41.81;100949.75;5058689;28;45562;-73
2022/05/31 07:48:48;;;;;;;;;3.00;3.00;;;;;23.98;41.33;100950.94;5061005;28;45582;-73
2022/05/31 07:51:14;;;;;;;;;3.00;3.00;;;;;24.07;41.38;100949.94;5065246;28;46074;-74
2022/05/31 07:53:39;;;;;;;;;4.00;4.00;;;;;24.14;41.24;100946.59;5056146;27;45494;-73
2022/05/31 07:56:09;;;;;;;;;4.00;3.00;;;;;24.20;40.86;100945.94;5046216;28;45640;-73
2022/05/31 07:58:37;;;;;;;;;3.33;3.33;;;;;24.25;40.82;100943.56;5061339;28;46845;-73
2022/05/31 08:01:14;;;;;;;;;3.67;3.67;;;;;24.29;40.70;100944.94;5043607;28;46340;-79
2022/05/31 08:03:40;;;;;;;;;4.67;4.67;;;;;24.30;39.84;100943.03;5050411;28;45630;-79
2022/05/31 08:06:10;;;;;;;;;5.33;4.00;;;;;24.36;39.90;100949.66;5050202;28;45459;-80
2022/05/31 08:08:36;;;;;;;;;3.00;3.00;;;;;24.42;39.85;100955.28;5055538;28;45728;-79
2022/05/31 08:11:13;;;;;;;;;3.67;3.67;;;;;24.48;39.79;100949.16;5043373;28;49921;-81
2022/05/31 08:13:40;;;;;;;;;4.67;3.00;;;;;24.52;39.79;100955.09;5052066;28;45727;-77
2022/05/31 08:16:07;;;;;;;;;5.67;4.00;;;;;24.57;39.40;100949.16;5048551;28;45660;-80
2022/05/31 08:18:33;;;;;;;;;5.33;4.00;;;;;24.60;39.28;100957.81;5049962;28;46197;-78
2022/05/31 08:21:06;;;;;;;;;5.00;4.00;;;;;24.63;39.10;100959.31;5054980;28;45987;-79
2022/05/31 08:23:31;;;;;;;;;2.33;2.33;;;;;24.67;39.14;100960.69;5050758;28;45688;-77
2022/05/31 08:25:58;;;;;;;;;5.67;4.67;;;;;24.69;39.01;100960.50;5050546;28;45497;-77
2022/05/31 08:28:24;;;;;;;;;4.00;4.00;;;;;24.71;38.58;100959.31;5050617;28;45414;-79
2022/05/31 08:30:55;;;;;;;;;4.33;4.00;;;;;24.73;38.83;100959.16;5041175;28;45533;-79
2022/05/31 08:33:21;;;;;;;;;2.00;2.00;;;;;24.74;38.82;100966.28;5045543;28;45567;-77
2022/05/31 08:35:46;;;;;;;;;4.33;3.33;;;;;24.72;38.36;100961.00;5047962;28;45572;-77
2022/05/31 08:38:11;;;;;;;;;3.33;3.33;;;;;24.78;38.80;100962.19;5046418;28;45434;-77
2022/05/31 08:40:55;;;;;;;;;4.00;4.00;;;;;24.80;38.56;100960.16;5048844;28;46212;-78
2022/05/31 08:43:32;;;;;;;;;3.67;3.67;;;;;24.82;38.71;100963.56;5049947;28;45563;-78
2022/05/31 08:46:07;;;;;;;;;3.00;3.00;;;;;24.88;38.32;100966.63;5051953;28;45423;-76
2022/05/31 08:48:42;;;;;;;;;3.33;3.33;;;;;24.90;38.15;100970.88;5039952;28;45528;-76
2022/05/31 08:57:06;;;;;;;;;3.00;3.00;;;;;24.92;38.21;100965.25;5047542;28;45475;-83
2022/05/31 08:59:48;;;;;;;;;4.00;3.00;;;;;24.92;38.12;100971.53;5048286;28;45629;-82
2022/05/31 09:02:21;;;;;;;;;5.00;5.00;;;;;24.96;38.27;100980.16;5042786;28;45580;-78
2022/05/31 09:05:03;;;;;;;;;5.00;3.00;;;;;24.94;38.11;100977.66;5040283;28;45566;-76
2022/05/31 09:07:57;;;;;;;;;2.00;2.00;;;;;24.89;38.19;100981.91;5049697;28;45505;-78
2022/05/31 09:10:45;;;;;;;;;4.00;4.00;;;;;24.85;38.65;100975.97;5040912;28;46048;-74
2022/05/31 09:13:33;;;;;;;;;6.00;4.00;;;;;24.84;38.92;100979.69;5041982;28;45493;-74
2022/05/31 09:16:53;;;;;;;;;4.00;4.00;;;;;24.85;38.94;100978.69;5039694;28;45497;-74
2022/05/31 09:19:44;;;;;;;;;2.67;2.67;;;;;24.86;39.05;100977.66;5047340;28;45568;-74
2022/05/31 12:55:36;;;;;;;;;3.00;3.00;;;;;20.50;39.17;100943.97;5098394;27;45505;-78
2022/05/31 13:00:52;;;;;;;;;1.33;1.33;;;;;20.99;39.02;100935.81;5106826;27;46972;-78
2022/05/31 13:03:32;;;;;;;;;3.00;3.00;;;;;21.28;38.63;100937.56;5099587;27;45982;-78
2022/05/31 13:06:14;;;;;;;;;3.00;3.00;;;;;21.58;37.85;100942.81;5106880;27;45362;-78
2022/05/31 13:08:48;;;;;;;;;2.00;2.00;;;;;21.89;37.98;100937.09;5106316;27;46187;-79
2022/05/31 13:20:20;;;;;;;;;2.33;2.33;;;;;23.02;36.30;100915.88;5105838;27;45477;-78
2022/05/31 13:22:58;;;;;;;;;2.00;2.00;;;;;23.20;35.83;100913.09;5105381;27;45489;-79
2022/05/31 13:25:28;;;;;;;;;2.00;2.00;;;;;23.41;35.50;100919.97;5103519;27;46255;-77
2022/05/31 13:27:58;;;;;;;;;1.33;1.33;;;;;23.58;35.15;100920.03;5096700;27;45374;-77
2022/05/31 13:30:26;;;;;;;;;2.00;2.00;;;;;23.72;34.94;100910.41;5106679;27;45580;-76
2022/05/31 13:32:52;;;;;;;;;2.00;2.00;;;;;23.86;34.94;100909.75;5106947;27;45637;-78
2022/05/31 13:35:24;;;;;;;;;1.50;1.50;;;;;23.98;34.83;100915.72;5106485;27;46575;-80
2022/05/31 13:38:08;;;;;;;;;2.67;2.00;;;;;24.13;34.56;100920.50;5101150;27;45921;-79
2022/05/31 13:40:40;;;;;;;;;2.00;2.00;;;;;24.24;34.22;100914.75;5104080;27;45596;-77
2022/05/31 13:43:16;;;;;;;;;2.00;2.00;;;;;24.33;34.02;100916.44;5105533;27;45879;-78
2022/05/31 13:45:42;;;;;;;;;2.00;2.00;;;;;24.38;33.93;100918.66;5108196;27;47284;-78
2022/05/31 13:48:18;;;;;;;;;2.00;2.00;;;;;24.47;33.78;100919.47;5107083;27;45545;-78
2022/05/31 13:51:05;;;;;;;;;2.33;2.00;;;;;24.57;33.67;100917.44;5109204;27;45566;-78
2022/05/31 13:53:37;;;;;;;;;2.00;2.00;;;;;24.63;33.16;100926.75;5108237;27;45414;-77
2022/05/31 13:56:03;;;;;;;;;2.00;2.00;;;;;24.71;33.01;100921.31;5104264;27;46300;-83
2022/05/31 13:58:33;;;;;;;;;2.33;1.00;;;;;24.78;32.93;100929.63;5101828;27;45519;-79
2022/05/31 14:01:01;;;;;;;;;2.00;2.00;;;;;24.82;32.69;100924.69;5099991;27;45627;-79
2022/05/31 14:03:31;;;;;;;;;4.33;2.67;;;;;24.88;32.85;100915.88;5086546;27;46990;-79
2022/05/31 14:06:02;;;;;;;;;2.67;2.67;;;;;24.91;32.64;100920.13;5086944;27;45991;-79
2022/05/31 14:08:46;;;;;;;;;3.67;2.00;;;;;24.88;32.66;100924.03;5065363;27;45758;-78
2022/05/31 14:11:17;;;;;;;;;2.33;2.00;;;;;24.83;32.36;100924.56;5082056;27;45733;-78
2022/05/31 14:13:48;;;;;;;;;2.67;2.00;;;;;24.88;32.23;100934.06;5079946;27;45554;-81
2022/05/31 14:16:18;;;;;;;;;3.00;2.33;;;;;24.85;32.14;100925.22;5078659;27;46697;-75
2022/05/31 14:18:51;;;;;;;;;2.67;2.67;;;;;24.92;31.93;100927.22;5080162;27;45568;-76
2022/05/31 14:21:18;;;;;;;;;1.67;1.67;;;;;24.99;31.91;100933.69;5080866;27;45466;-77
2022/05/31 14:23:44;;;;;;;;;3.00;2.00;;;;;25.01;32.27;100926.19;5083010;27;45918;-76
2022/05/31 14:26:11;;;;;;;;;1.33;1.33;;;;;25.07;32.02;100927.38;5078824;27;46382;-75
2022/05/31 14:28:36;;;;;;;;;1.00;1.00;;;;;25.06;31.65;100917.53;5085805;27;45431;-76
2022/05/31 14:31:06;;;;;;;;;2.00;2.00;;;;;25.08;31.68;100920.91;5079034;27;45712;-76
2022/05/31 14:33:34;;;;;;;;;2.33;2.00;;;;;25.13;31.65;100932.09;5081637;27;45954;-76
2022/05/31 14:36:01;;;;;;;;;2.00;2.00;;;;;25.15;31.28;100926.50;5081331;27;45572;-78
2022/05/31 14:38:36;;;;;;;;;2.00;2.00;;;;;25.16;31.69;100920.91;5083256;27;46847;-79
2022/05/31 14:41:18;;;;;;;;;2.00;2.00;;;;;25.18;31.55;100915.28;5080021;27;45555;-77
2022/05/31 14:43:52;;;;;;;;;2.00;2.00;;;;;25.18;31.70;100918.84;5081695;27;45727;-75
2022/05/31 14:46:37;;;;;;;;;1.33;1.33;;;;;25.20;31.40;100927.69;5079125;27;47533;-75
2022/05/31 14:49:27;;;;;;;;;2.00;2.00;;;;;25.22;31.48;100916.63;5078257;27;45530;-73
2022/05/31 14:51:53;;;;;;;;;2.00;1.00;;;;;25.24;31.41;100912.72;5079509;27;45854;-74
2022/05/31 14:54:38;;;;;;;;;2.67;2.00;;;;;25.31;30.86;100915.59;5080518;27;46375;-73
2022/05/31 14:57:10;;;;;;;;;2.00;2.00;;;;;25.33;31.29;100908.09;5080600;27;47207;-74
2022/05/31 14:59:36;;;;;;;;;1.33;1.33;;;;;25.31;31.42;100904.72;5081419;27;45512;-73
2022/05/31 15:02:03;;;;;;;;;2.33;2.33;;;;;25.37;30.68;100911.28;5077983;27;45517;-74
2022/05/31 15:04:45;;;;;;;;;2.00;2.00;;;;;25.39;30.44;100917.41;5076158;27;45948;-74
2022/05/31 15:07:12;;;;;;;;;3.00;3.00;;;;;25.41;30.95;100914.53;5077122;27;46220;-75
2022/05/31 15:09:39;;;;;;;;;4.67;3.00;;;;;25.42;31.19;100916.22;5078694;27;47067;-74
2022/05/31 15:20:24;;;;;;;;;2.00;2.00;;;;;25.39;30.43;100925.56;5084618;27;45415;-76
2022/05/31 15:22:50;;;;;;;;;2.33;2.33;;;;;25.38;30.23;100919.28;5077734;27;45615;-76
2022/05/31 15:25:22;;;;;;;;;2.00;2.00;;;;;25.43;30.13;100929.63;5085711;27;45570;-77
2022/05/31 15:27:48;;;;;;;;;2.00;2.00;;;;;25.43;30.21;100921.47;5079379;27;45699;-76
2022/05/31 15:30:15;;;;;;;;;2.33;2.33;;;;;25.48;30.46;100931.78;5085411;27;46907;-76
2022/05/31 15:32:44;;;;;;;;;2.00;2.00;;;;;25.47;29.97;100930.94;5088329;27;45438;-76
2022/05/31 15:35:10;;;;;;;;;2.00;2.00;;;;;25.48;30.44;100927.22;5083624;27;45515;-81
2022/05/31 15:37:35;;;;;;;;;3.00;1.67;;;;;25.47;30.24;100936.38;5084427;27;46133;-78
2022/05/31 15:40:03;;;;;;;;;1.33;1.33;;;;;25.47;30.18;100938.25;5085168;27;45517;-76
2022/05/31 15:42:29;;;;;;;;;1.00;1.00;;;;;25.48;30.29;100931.78;5076923;27;45995;-75
2022/05/31 15:44:55;;;;;;;;;2.00;1.00;;;;;25.49;30.25;100931.63;5079025;27;45711;-75
2022/05/31 15:47:20;;;;;;;;;1.00;1.00;;;;;25.52;30.47;100925.00;5081900;27;45953;-74
2022/05/31 15:49:47;;;;;;;;;2.00;2.00;;;;;25.55;30.20;100929.22;5084871;27;46233;-76
2022/05/31 18:50:59;;;;;;;;;5.00;3.00;;;;;20.10;42.06;101057.16;5068899;27;46031;-76
2022/05/31 18:53:25;;;;;;;;;3.50;3.50;;;;;20.22;41.82;101059.72;5054575;28;45814;-75
2022/05/31 18:55:51;;;;;;;;;4.00;4.00;;;;;20.41;41.76;101065.16;5056526;28;45667;-75
2022/05/31 18:58:27;;;;;;;;;5.00;5.00;;;;;20.67;41.83;101064.63;5057889;28;45781;-75
2022/05/31 19:00:53;;;;;;;;;3.00;3.00;;;;;20.96;41.32;101064.78;5058023;28;46441;-75
2022/05/31 19:03:20;;;;;;;;;3.67;3.00;;;;;21.25;41.12;101083.63;5056298;28;45335;-75
2022/05/31 19:05:45;;;;;;;;;5.00;3.33;;;;;21.52;41.36;101076.59;5066437;28;45586;-75
2022/05/31 19:08:10;;;;;;;;;3.33;3.00;;;;;21.79;40.64;101074.94;5060850;27;45587;-78
2022/05/31 19:10:39;;;;;;;;;3.00;3.00;;;;;22.08;40.33;101084.78;5063322;28;46287;-79
2022/05/31 19:13:10;;;;;;;;;5.00;3.67;;;;;22.34;40.06;101078.66;5058928;28;45494;-76
2022/05/31 19:15:37;;;;;;;;;4.67;1.00;;;;;22.58;40.31;101074.53;5058441;28;45855;-76
2022/05/31 19:18:08;;;;;;;;;2.00;2.00;;;;;22.79;39.67;101078.78;5056109;27;45870;-76
2022/05/31 19:20:34;;;;;;;;;3.33;2.00;;;;;22.97;39.22;101077.91;5061636;28;45577;-84
2022/05/31 19:23:00;;;;;;;;;4.00;4.00;;;;;23.20;38.88;101080.09;5064935;28;45586;-77
2022/05/31 19:25:28;;;;;;;;;3.67;3.33;;;;;23.43;37.78;101083.19;5058702;28;45340;-76
2022/05/31 19:27:55;;;;;;;;;2.67;2.00;;;;;23.63;37.60;101089.22;5062481;28;45583;-79
2022/05/31 19:30:21;;;;;;;;;5.67;3.33;;;;;23.74;37.62;101093.50;5059464;28;46090;-79
2022/05/31 19:32:49;;;;;;;;;6.33;4.00;;;;;23.86;37.08;101091.38;5064840;28;45530;-76
2022/05/31 19:35:17;;;;;;;;;3.67;3.00;;;;;23.99;36.79;101092.78;5062404;28;45470;-77
2022/05/31 19:37:42;;;;;;;;;4.67;3.00;;;;;24.10;36.51;101094.38;5065213;28;48929;-78
2022/05/31 19:40:09;;;;;;;;;3.33;3.33;;;;;24.19;36.28;101096.09;5064791;28;45838;-78
2022/05/31 19:42:35;;;;;;;;;3.00;3.00;;;;;24.27;36.46;101101.53;5058829;27;45550;-78
2022/05/31 19:45:01;;;;;;;;;5.00;5.00;;;;;24.37;36.39;101114.13;5066905;28;45422;-77
2022/05/31 19:47:26;;;;;;;;;4.00;4.00;;;;;24.43;36.66;101110.72;5063738;28;45464;-82
2022/05/31 19:49:52;;;;;;;;;6.00;3.33;;;;;24.49;36.49;101115.53;5057518;27;45277;-76
2022/05/31 19:52:17;;;;;;;;;2.00;2.00;;;;;24.53;36.50;101116.88;5061556;28;45461;-76
2022/05/31 19:54:43;;;;;;;;;3.33;3.33;;;;;24.58;36.48;101119.09;5063797;28;45247;-75
2022/05/31 19:57:30;;;;;;;;;2.33;2.33;;;;;24.64;36.72;101126.56;5060102;28;45462;-76
2022/05/31 19:59:56;;;;;;;;;3.67;3.67;;;;;24.70;36.93;101139.47;5065147;28;46150;-76
2022/05/31 20:02:22;;;;;;;;;3.00;3.00;;;;;24.77;36.88;101150.50;5045467;28;45699;-73
2022/05/31 20:04:47;;;;;;;;;3.00;3.00;;;;;24.80;37.03;101147.44;5048090;28;45385;-75
2022/05/31 20:07:17;;;;;;;;;2.00;2.00;;;;;24.84;36.72;101150.72;5051292;28;45602;-74
2022/05/31 20:12:28;;;;;;;;;3.00;3.00;;;;;24.91;37.05;101154.47;5047133;28;45493;-76
2022/05/31 20:14:54;;;;;;;;;6.33;3.00;;;;;24.94;37.30;101156.00;5053011;28;45548;-76
